createdAt,value
2023-03-05T00:01:36.794Z,11.59
2023-03-05T00:04:08.643Z,11.51
2023-03-05T00:06:36.908Z,11.42
2023-03-05T00:09:06.465Z,11.34
2023-03-05T00:11:35.259Z,11.28
2023-03-05T00:14:07.764Z,11.26
2023-03-05T00:16:36.068Z,11.23
2023-03-05T00:19:04.818Z,11.22
2023-03-05T00:21:39.278Z,11.22
2023-03-05T00:24:12.118Z,11.20
2023-03-05T00:26:41.508Z,11.13
2023-03-05T00:29:11.005Z,11.13
2023-03-05T00:31:40.118Z,11.13
2023-03-05T00:34:10.944Z,11.13
2023-03-05T00:36:47.189Z,11.10
2023-03-05T00:39:15.937Z,11.08
2023-03-05T00:41:44.436Z,11.09
2023-03-05T00:44:13.603Z,11.13
2023-03-05T00:46:41.945Z,11.11
2023-03-05T00:49:10.275Z,11.08
2023-03-05T00:51:38.519Z,11.10
2023-03-05T00:54:07.322Z,11.12
2023-03-05T00:56:35.959Z,11.15
2023-03-05T00:59:04.201Z,11.15
2023-03-05T01:01:32.505Z,11.15
2023-03-05T01:04:02.053Z,11.14
2023-03-05T01:06:30.696Z,11.12
2023-03-05T01:09:00.126Z,11.11
2023-03-05T01:11:28.494Z,11.09
2023-03-05T01:13:56.699Z,11.11
2023-03-05T01:16:24.985Z,11.11
2023-03-05T01:18:53.234Z,11.01
2023-03-05T01:21:22.846Z,10.93
2023-03-05T01:23:51.365Z,10.88
2023-03-05T01:26:19.584Z,10.90
2023-03-05T01:28:47.933Z,10.92
2023-03-05T01:31:16.377Z,10.93
2023-03-05T01:33:44.735Z,10.91
2023-03-05T01:36:17.502Z,10.91
2023-03-05T01:38:47.670Z,10.90
2023-03-05T01:41:18.272Z,10.90
2023-03-05T01:43:48.844Z,10.90
2023-03-05T01:46:31.300Z,10.86
2023-03-05T01:49:27.153Z,10.82
2023-03-05T01:52:08.725Z,10.77
2023-03-05T01:54:42.912Z,10.73
2023-03-05T01:57:29.283Z,10.71
2023-03-05T02:00:03.531Z,10.69
2023-03-05T02:02:33.135Z,10.62
2023-03-05T02:05:07.967Z,10.51
2023-03-05T02:07:38.182Z,10.43
2023-03-05T02:10:42.008Z,10.33
2023-03-05T02:13:16.611Z,10.27
2023-03-05T02:15:44.564Z,10.24
2023-03-05T02:18:12.808Z,10.19
2023-03-05T02:20:58.672Z,10.16
2023-03-05T02:23:30.066Z,10.09
2023-03-05T02:25:58.412Z,10.03
2023-03-05T02:28:29.426Z,9.99
2023-03-05T02:30:58.230Z,9.92
2023-03-05T02:33:26.557Z,9.87
2023-03-05T02:35:54.912Z,9.84
2023-03-05T02:38:23.654Z,9.79
2023-03-05T02:40:51.889Z,9.72
2023-03-05T02:43:20.178Z,9.68
2023-03-05T02:45:48.615Z,9.63
2023-03-05T02:48:16.968Z,9.57
2023-03-05T02:50:46.349Z,9.48
2023-03-05T02:53:14.625Z,9.45
2023-03-05T02:55:42.938Z,9.42
2023-03-05T02:58:11.185Z,9.40
2023-03-05T03:00:39.401Z,9.36
2023-03-05T03:03:07.719Z,9.32
2023-03-05T03:05:37.604Z,9.30
2023-03-05T03:08:06.370Z,9.19
2023-03-05T03:10:35.031Z,9.14
2023-03-05T03:13:03.698Z,9.10
2023-03-05T03:15:31.966Z,9.08
2023-03-05T03:18:00.177Z,9.06
2023-03-05T03:20:29.170Z,9.02
2023-03-05T03:22:57.377Z,9.01
2023-03-05T03:25:25.843Z,8.98
2023-03-05T03:27:54.165Z,8.96
2023-03-05T03:30:22.657Z,8.90
2023-03-05T03:32:53.383Z,8.90
2023-03-05T03:35:21.761Z,8.89
2023-03-05T03:37:50.385Z,8.87
2023-03-05T03:40:18.936Z,8.83
2023-03-05T03:42:47.191Z,8.81
2023-03-05T03:45:15.581Z,8.80
2023-03-05T03:47:43.975Z,8.78
2023-03-05T03:50:12.816Z,8.77
2023-03-05T03:52:41.097Z,8.76
2023-03-05T03:55:09.660Z,8.74
2023-03-05T03:57:38.101Z,8.69
2023-03-05T04:00:07.885Z,8.65
2023-03-05T04:02:36.161Z,8.65
2023-03-05T04:05:05.163Z,8.65
2023-03-05T04:07:33.398Z,8.62
2023-03-05T04:10:01.587Z,8.59
2023-03-05T04:12:29.817Z,8.60
2023-03-05T04:14:58.038Z,8.60
2023-03-05T04:17:26.357Z,8.57
2023-03-05T04:19:54.563Z,8.53
2023-03-05T04:22:22.863Z,8.48
2023-03-05T04:24:51.277Z,8.47
2023-03-05T04:27:19.496Z,8.48
2023-03-05T04:29:47.807Z,8.48
2023-03-05T04:32:16.029Z,8.43
2023-03-05T04:34:44.214Z,8.40
2023-03-05T04:37:12.430Z,8.39
2023-03-05T04:39:40.646Z,8.39
2023-03-05T04:42:08.928Z,8.40
2023-03-05T04:44:37.632Z,8.40
2023-03-05T04:47:05.971Z,8.41
2023-03-05T04:49:34.229Z,8.42
2023-03-05T04:52:02.473Z,8.46
2023-03-05T04:54:30.707Z,8.47
2023-03-05T04:56:58.931Z,8.44
2023-03-05T04:59:27.202Z,8.39
2023-03-05T05:01:55.436Z,8.34
2023-03-05T05:04:24.143Z,8.33
2023-03-05T05:06:55.716Z,8.33
2023-03-05T05:09:26.225Z,8.32
2023-03-05T05:11:54.865Z,8.27
2023-03-05T05:14:23.521Z,8.25
2023-03-05T05:16:51.738Z,8.26
2023-03-05T05:19:19.940Z,8.27
2023-03-05T05:21:48.409Z,8.24
2023-03-05T05:24:16.715Z,8.21
2023-03-05T05:26:44.879Z,8.20
2023-03-05T05:29:13.097Z,8.18
2023-03-05T05:31:41.448Z,8.15
2023-03-05T05:34:09.762Z,8.09
2023-03-05T05:36:37.966Z,8.11
2023-03-05T05:39:06.898Z,8.13
2023-03-05T05:41:35.155Z,8.13
2023-03-05T05:44:03.423Z,8.08
2023-03-05T05:46:31.774Z,8.06
2023-03-05T05:49:00.116Z,8.06
2023-03-05T05:51:28.397Z,8.05
2023-03-05T05:53:56.709Z,8.06
2023-03-05T05:56:26.238Z,8.03
2023-03-05T05:58:55.034Z,7.99
2023-03-05T06:01:29.782Z,7.96
2023-03-05T06:03:58.049Z,7.93
2023-03-05T06:06:27.996Z,7.90
2023-03-05T06:08:57.057Z,7.90
2023-03-05T06:11:25.350Z,7.95
2023-03-05T06:13:53.875Z,7.94
2023-03-05T06:16:24.966Z,7.94
2023-03-05T06:18:54.502Z,7.96
2023-03-05T06:21:23.952Z,7.93
2023-03-05T06:23:52.433Z,7.89
2023-03-05T06:26:22.520Z,7.85
2023-03-05T06:28:51.678Z,7.84
2023-03-05T06:31:28.828Z,7.79
2023-03-05T06:33:59.720Z,7.80
2023-03-05T06:36:28.830Z,7.78
2023-03-05T06:38:57.794Z,7.77
2023-03-05T06:41:31.595Z,7.79
2023-03-05T06:44:03.159Z,7.77
2023-03-05T06:46:33.616Z,7.73
2023-03-05T06:49:04.883Z,7.69
2023-03-05T06:51:36.260Z,7.66
2023-03-05T06:54:07.725Z,7.60
2023-03-05T06:56:40.414Z,7.60
2023-03-05T06:59:09.444Z,7.62
2023-03-05T07:01:37.833Z,7.66
2023-03-05T07:04:07.644Z,7.67
2023-03-05T07:06:43.038Z,7.66
2023-03-05T07:09:16.804Z,7.62
2023-03-05T07:11:45.084Z,7.58
2023-03-05T07:14:13.598Z,7.55
2023-03-05T07:16:41.827Z,7.57
2023-03-05T07:19:11.795Z,7.58
2023-03-05T07:21:40.439Z,7.59
2023-03-05T07:24:09.821Z,7.61
2023-03-05T07:26:38.221Z,7.64
2023-03-05T07:29:06.451Z,7.68
2023-03-05T07:31:34.754Z,7.77
2023-03-05T07:34:04.131Z,7.88
2023-03-05T07:36:32.649Z,7.98
2023-03-05T07:39:00.932Z,8.04
2023-03-05T07:41:29.194Z,8.10
2023-03-05T07:43:57.639Z,8.14
2023-03-05T07:46:29.724Z,8.16
2023-03-05T07:48:58.235Z,8.18
2023-03-05T07:51:29.049Z,8.21
2023-03-05T07:53:58.444Z,8.24
2023-03-05T07:56:32.798Z,8.30
2023-03-05T07:59:02.158Z,8.33
2023-03-05T08:01:31.602Z,8.36
2023-03-05T08:03:59.894Z,8.41
2023-03-05T08:06:28.195Z,8.46
2023-03-05T08:08:56.817Z,8.56
2023-03-05T08:11:25.081Z,8.63
2023-03-05T08:13:53.344Z,8.70
2023-03-05T08:16:22.906Z,8.76
2023-03-05T08:18:51.461Z,8.80
2023-03-05T08:21:27.704Z,8.83
2023-03-05T08:23:57.645Z,8.83
2023-03-05T08:26:29.021Z,8.87
2023-03-05T08:28:57.446Z,8.88
2023-03-05T08:31:27.906Z,8.91
2023-03-05T08:33:57.540Z,8.98
2023-03-05T08:36:25.827Z,9.06
2023-03-05T08:38:54.056Z,9.07
2023-03-05T08:41:22.253Z,9.08
2023-03-05T08:43:50.713Z,9.11
2023-03-05T08:46:19.237Z,9.13
2023-03-05T08:48:47.509Z,9.14
2023-03-05T08:51:18.339Z,9.16
2023-03-05T08:53:47.738Z,9.18
2023-03-05T08:56:16.494Z,9.18
2023-03-05T08:58:45.447Z,9.18
2023-03-05T09:01:15.172Z,9.22
2023-03-05T09:03:43.667Z,9.23
2023-03-05T09:06:16.151Z,9.27
2023-03-05T09:08:44.359Z,9.29
2023-03-05T09:11:14.260Z,9.30
2023-03-05T09:13:42.495Z,9.31
2023-03-05T09:16:15.018Z,9.32
2023-03-05T09:18:43.494Z,9.34
2023-03-05T09:21:14.802Z,9.34
2023-03-05T09:23:43.420Z,9.34
2023-03-05T09:26:13.993Z,9.35
2023-03-05T09:28:42.881Z,9.33
2023-03-05T09:31:11.444Z,9.27
2023-03-05T09:33:40.035Z,9.17
2023-03-05T09:36:28.859Z,9.11
2023-03-05T09:38:57.593Z,9.03
2023-03-05T09:41:53.142Z,8.99
2023-03-05T09:44:28.319Z,8.97
2023-03-05T09:47:08.309Z,8.93
2023-03-05T09:50:02.499Z,8.90
2023-03-05T09:52:46.888Z,8.90
2023-03-05T09:55:30.896Z,8.88
2023-03-05T09:58:07.203Z,8.86
2023-03-05T10:00:42.544Z,8.84
2023-03-05T10:03:40.473Z,8.82
2023-03-05T10:06:14.552Z,8.81
2023-03-05T10:09:13.856Z,8.80
2023-03-05T10:11:54.464Z,8.81
2023-03-05T10:14:39.389Z,8.81
2023-03-05T10:17:23.102Z,8.81
2023-03-05T10:20:29.270Z,8.83
2023-03-05T10:23:09.565Z,8.83
2023-03-05T10:26:14.876Z,8.83
2023-03-05T10:29:13.715Z,8.79
2023-03-05T10:31:55.040Z,8.74
2023-03-05T10:34:44.724Z,8.74
2023-03-05T10:37:56.041Z,8.74
2023-03-05T10:40:45.202Z,8.75
2023-03-05T10:43:29.149Z,8.78
2023-03-05T10:45:59.560Z,8.80
2023-03-05T10:48:46.545Z,8.86
2023-03-05T10:51:31.568Z,8.91
2023-03-05T10:54:26.191Z,8.95
2023-03-05T10:57:24.115Z,8.97
2023-03-05T11:00:02.529Z,8.79
2023-03-05T11:02:30.797Z,8.58
2023-03-05T11:04:59.009Z,8.33
2023-03-05T11:07:27.120Z,7.96
2023-03-05T11:10:14.905Z,7.71
2023-03-05T11:12:43.677Z,7.57
2023-03-05T11:15:11.920Z,7.43
2023-03-05T11:17:50.102Z,7.35
2023-03-05T11:20:30.332Z,7.36
2023-03-05T11:23:13.614Z,7.33
2023-03-05T11:26:13.428Z,7.33
2023-03-05T11:28:57.925Z,7.36
2023-03-05T11:31:29.039Z,7.40
2023-03-05T11:34:31.019Z,7.46
2023-03-05T11:36:59.200Z,7.52
2023-03-05T11:39:31.225Z,7.53
2023-03-05T11:42:16.316Z,7.53
2023-03-05T11:44:47.344Z,7.57
2023-03-05T11:47:18.418Z,7.60
2023-03-05T11:49:50.855Z,7.61
2023-03-05T11:52:33.299Z,7.58
2023-03-05T11:55:13.502Z,7.57
2023-03-05T11:58:22.421Z,7.56
2023-03-05T12:00:51.278Z,7.57
2023-03-05T12:03:30.500Z,7.55
2023-03-05T12:06:05.972Z,7.57
2023-03-05T12:08:38.444Z,7.55
2023-03-05T12:11:20.504Z,7.54
2023-03-05T12:14:14.652Z,7.55
2023-03-05T12:16:47.966Z,7.51
2023-03-05T12:19:36.576Z,7.51
2023-03-05T12:22:07.839Z,7.51
2023-03-05T12:24:38.367Z,7.53
2023-03-05T12:27:08.396Z,7.55
2023-03-05T12:29:44.185Z,7.55
2023-03-05T12:32:30.589Z,7.56
2023-03-05T12:35:06.245Z,7.59
2023-03-05T12:37:34.424Z,7.59
2023-03-05T12:40:13.544Z,7.62
2023-03-05T12:43:00.303Z,7.68
2023-03-05T12:45:40.656Z,7.64
2023-03-05T12:48:14.472Z,7.65
2023-03-05T12:50:43.981Z,7.62
2023-03-05T12:53:15.982Z,7.62
2023-03-05T12:55:46.880Z,7.58
2023-03-05T12:58:22.887Z,7.56
2023-03-05T13:00:59.642Z,7.53
2023-03-05T13:03:36.737Z,7.52
2023-03-05T13:06:07.510Z,7.56
2023-03-05T13:08:38.149Z,7.53
2023-03-05T13:11:09.900Z,7.47
2023-03-05T13:13:42.990Z,7.48
2023-03-05T13:16:25.035Z,7.51
2023-03-05T13:18:55.041Z,7.49
2023-03-05T13:21:29.848Z,7.49
2023-03-05T13:23:59.018Z,7.51
2023-03-05T13:26:37.077Z,7.50
2023-03-05T13:29:23.525Z,7.52
2023-03-05T13:32:04.149Z,7.51
2023-03-05T13:34:46.572Z,7.52
2023-03-05T13:37:22.095Z,7.50
2023-03-05T13:40:01.069Z,7.49
2023-03-05T13:42:33.229Z,7.43
2023-03-05T13:45:22.589Z,7.41
2023-03-05T13:48:06.530Z,7.41
2023-03-05T13:50:38.059Z,7.46
2023-03-05T13:53:29.561Z,7.50
2023-03-05T13:56:09.993Z,7.49
2023-03-05T13:58:55.819Z,7.53
2023-03-05T14:01:56.142Z,7.56
2023-03-05T14:04:28.657Z,7.60
2023-03-05T14:07:06.027Z,7.60
2023-03-05T14:09:40.024Z,7.60
2023-03-05T14:12:25.087Z,7.62
2023-03-05T14:14:52.968Z,7.64
2023-03-05T14:17:43.794Z,7.65
2023-03-05T14:20:14.854Z,7.65
2023-03-05T14:22:46.183Z,7.61
2023-03-05T14:25:40.451Z,7.62
2023-03-05T14:28:27.277Z,7.62
2023-03-05T14:30:57.865Z,7.63
2023-03-05T14:33:30.754Z,7.64
2023-03-05T14:36:01.080Z,7.66
2023-03-05T14:38:32.640Z,7.68
2023-03-05T14:41:39.737Z,7.67
2023-03-05T14:44:16.561Z,7.67
2023-03-05T14:46:49.381Z,7.66
2023-03-05T14:49:18.626Z,7.65
2023-03-05T14:51:48.200Z,7.68
2023-03-05T14:54:26.778Z,7.69
2023-03-05T14:56:55.065Z,7.73
2023-03-05T14:59:23.302Z,7.73
2023-03-05T15:01:51.774Z,7.76
2023-03-05T15:04:20.700Z,7.80
2023-03-05T15:06:52.061Z,7.81
2023-03-05T15:09:21.825Z,7.77
2023-03-05T15:11:50.578Z,7.61
2023-03-05T15:14:20.586Z,7.22
2023-03-05T15:16:49.660Z,7.00
2023-03-05T15:19:18.050Z,6.90
2023-03-05T15:21:46.291Z,6.90
2023-03-05T15:24:15.635Z,6.91
2023-03-05T15:26:43.840Z,6.89
2023-03-05T15:29:12.095Z,6.88
2023-03-05T15:31:41.349Z,6.93
2023-03-05T15:34:09.600Z,6.96
2023-03-05T15:36:37.782Z,6.95
2023-03-05T15:39:06.007Z,7.01
2023-03-05T15:41:34.367Z,7.09
2023-03-05T15:44:02.622Z,7.11
2023-03-05T15:46:30.958Z,7.12
2023-03-05T15:48:59.269Z,7.12
2023-03-05T15:51:27.509Z,7.13
2023-03-05T15:53:56.560Z,7.16
2023-03-05T15:56:24.839Z,7.20
2023-03-05T15:58:53.070Z,7.19
2023-03-05T16:01:21.705Z,7.25
2023-03-05T16:03:50.733Z,7.34
2023-03-05T16:06:23.710Z,7.42
2023-03-05T16:08:56.689Z,7.52
2023-03-05T16:11:25.300Z,7.62
2023-03-05T16:13:54.110Z,7.69
2023-03-05T16:16:24.372Z,7.81
2023-03-05T16:18:54.564Z,7.96
2023-03-05T16:21:22.844Z,8.12
2023-03-05T16:23:51.327Z,8.16
2023-03-05T16:26:19.854Z,8.22
2023-03-05T16:28:48.079Z,8.24
2023-03-05T16:31:16.833Z,8.26
2023-03-05T16:33:45.161Z,8.32
2023-03-05T16:36:24.306Z,8.28
2023-03-05T16:38:58.063Z,8.30
2023-03-05T16:41:27.435Z,8.31
2023-03-05T16:43:59.252Z,8.29
2023-03-05T16:46:29.730Z,8.29
2023-03-05T16:48:59.391Z,8.25
2023-03-05T16:51:28.018Z,8.24
2023-03-05T16:53:56.339Z,8.35
2023-03-05T16:56:24.735Z,8.45
2023-03-05T16:58:55.598Z,8.50
2023-03-05T17:01:24.679Z,8.54
2023-03-05T17:03:54.359Z,8.66
2023-03-05T17:06:26.643Z,8.74
2023-03-05T17:08:56.116Z,8.82
2023-03-05T17:11:26.587Z,8.89
2023-03-05T17:13:54.860Z,8.99
2023-03-05T17:16:23.533Z,9.09
2023-03-05T17:18:51.804Z,9.20
2023-03-05T17:21:20.143Z,9.29
2023-03-05T17:23:48.562Z,9.31
2023-03-05T17:26:18.895Z,9.39
2023-03-05T17:28:47.712Z,9.53
2023-03-05T17:31:16.199Z,9.63
2023-03-05T17:33:44.765Z,9.72
2023-03-05T17:36:22.708Z,9.83
2023-03-05T17:38:52.526Z,9.84
2023-03-05T17:41:20.988Z,9.88
2023-03-05T17:43:49.800Z,9.96
2023-03-05T17:46:18.745Z,10.12
2023-03-05T17:48:47.107Z,10.24
2023-03-05T17:51:17.585Z,10.18
2023-03-05T17:53:46.018Z,10.04
2023-03-05T17:56:17.741Z,9.93
2023-03-05T17:58:45.980Z,9.88
2023-03-05T18:01:22.388Z,9.85
2023-03-05T18:03:51.330Z,9.86
2023-03-05T18:06:19.831Z,9.91
2023-03-05T18:08:48.117Z,10.07
2023-03-05T18:11:16.661Z,10.14
2023-03-05T18:13:45.137Z,10.17
2023-03-05T18:16:17.646Z,10.27
2023-03-05T18:18:46.475Z,10.27
2023-03-05T18:21:18.923Z,10.30
2023-03-05T18:23:47.389Z,10.27
2023-03-05T18:26:15.914Z,10.15
2023-03-05T18:28:44.980Z,10.03
2023-03-05T18:31:13.315Z,9.91
2023-03-05T18:33:43.058Z,9.84
2023-03-05T18:36:12.746Z,9.60
2023-03-05T18:38:41.062Z,9.29
2023-03-05T18:41:09.509Z,9.04
2023-03-05T18:43:37.950Z,8.88
2023-03-05T18:46:09.033Z,8.64
2023-03-05T18:48:37.393Z,8.39
2023-03-05T18:51:06.066Z,8.34
2023-03-05T18:53:34.322Z,8.41
2023-03-05T18:56:02.544Z,8.62
2023-03-05T18:58:30.782Z,8.86
2023-03-05T19:00:59.055Z,9.06
2023-03-05T19:03:27.801Z,9.18
2023-03-05T19:05:56.156Z,9.29
2023-03-05T19:08:24.393Z,9.46
2023-03-05T19:10:52.658Z,9.65
2023-03-05T19:13:40.482Z,9.79
2023-03-05T19:16:18.570Z,9.94
2023-03-05T19:19:16.137Z,10.18
2023-03-05T19:21:46.801Z,10.41
2023-03-05T19:24:15.360Z,10.59
2023-03-05T19:26:44.722Z,10.73
2023-03-05T19:29:13.458Z,10.83
2023-03-05T19:31:42.830Z,10.95
2023-03-05T19:34:11.084Z,10.99
2023-03-05T19:36:39.626Z,10.92
2023-03-05T19:39:09.029Z,10.96
2023-03-05T19:41:37.727Z,10.89
2023-03-05T19:44:06.487Z,10.83
2023-03-05T19:46:34.937Z,10.81
2023-03-05T19:49:03.285Z,10.75
2023-03-05T19:51:31.578Z,10.69
2023-03-05T19:53:59.782Z,10.68
2023-03-05T19:56:28.048Z,10.74
2023-03-05T19:58:56.331Z,10.87
2023-03-05T20:01:28.396Z,11.11
2023-03-05T20:03:58.875Z,11.20
2023-03-05T20:06:28.742Z,11.09
2023-03-05T20:08:57.810Z,10.93
2023-03-05T20:11:27.334Z,10.72
2023-03-05T20:13:57.207Z,10.57
2023-03-05T20:16:28.763Z,10.44
2023-03-05T20:18:58.787Z,10.32
2023-03-05T20:21:30.127Z,10.21
2023-03-05T20:24:00.904Z,10.08
2023-03-05T20:26:29.857Z,9.98
2023-03-05T20:29:00.650Z,9.91
2023-03-05T20:31:29.393Z,9.81
2023-03-05T20:33:57.677Z,9.75
2023-03-05T20:36:26.104Z,9.70
2023-03-05T20:38:54.389Z,9.76
2023-03-05T20:41:22.989Z,9.84
2023-03-05T20:43:52.807Z,9.98
2023-03-05T20:46:26.393Z,9.97
2023-03-05T20:48:59.616Z,10.05
2023-03-05T20:51:38.919Z,10.16
2023-03-05T20:54:13.882Z,10.27
2023-03-05T20:56:42.734Z,10.39
2023-03-05T20:59:12.242Z,10.44
2023-03-05T21:01:41.536Z,10.46
2023-03-05T21:04:10.399Z,10.44
2023-03-05T21:06:38.960Z,10.44
2023-03-05T21:09:07.209Z,10.40
2023-03-05T21:11:36.661Z,10.43
2023-03-05T21:14:04.979Z,10.45
2023-03-05T21:16:33.249Z,10.44
2023-03-05T21:19:01.728Z,10.44
2023-03-05T21:21:31.118Z,10.42
2023-03-05T21:23:59.368Z,10.43
2023-03-05T21:26:27.598Z,10.43
2023-03-05T21:28:55.857Z,10.51
2023-03-05T21:31:24.576Z,10.60
2023-03-05T21:33:52.999Z,10.70
2023-03-05T21:36:21.254Z,10.74
2023-03-05T21:38:50.745Z,10.76
2023-03-05T21:41:21.311Z,11.07
2023-03-05T21:43:50.117Z,11.53
2023-03-05T21:46:18.540Z,11.81
2023-03-05T21:48:46.751Z,11.84
2023-03-05T21:51:17.861Z,11.66
2023-03-05T21:53:46.075Z,11.43
2023-03-05T21:56:18.123Z,11.17
2023-03-05T21:58:46.507Z,10.95
2023-03-05T22:01:17.080Z,10.85
2023-03-05T22:03:45.456Z,10.80
2023-03-05T22:06:15.264Z,10.75
2023-03-05T22:08:43.875Z,10.76
2023-03-05T22:11:14.528Z,11.24
2023-03-05T22:13:43.081Z,11.24
2023-03-05T22:16:11.781Z,11.19
2023-03-05T22:18:40.073Z,11.13
2023-03-05T22:21:19.189Z,11.08
2023-03-05T22:23:47.969Z,11.04
2023-03-05T22:26:16.468Z,11.05
2023-03-05T22:28:44.692Z,11.14
2023-03-05T22:31:13.341Z,11.36
2023-03-05T22:33:41.699Z,11.44
2023-03-05T22:36:12.494Z,11.43
2023-03-05T22:38:41.114Z,11.42
2023-03-05T22:41:12.231Z,11.54
2023-03-05T22:43:41.187Z,12.13
2023-03-05T22:46:15.287Z,12.87
2023-03-05T22:48:43.861Z,12.67
2023-03-05T22:51:12.846Z,12.65
2023-03-05T22:53:41.567Z,13.00
2023-03-05T22:56:16.061Z,12.94
2023-03-05T22:58:44.337Z,12.60
2023-03-05T23:01:15.125Z,12.44
2023-03-05T23:03:44.112Z,12.42
2023-03-05T23:06:12.561Z,12.33
2023-03-05T23:08:40.797Z,12.58
2023-03-05T23:11:11.367Z,12.79
2023-03-05T23:13:41.300Z,12.60
2023-03-05T23:16:10.503Z,12.59
2023-03-05T23:18:38.870Z,12.75
2023-03-05T23:21:07.214Z,12.80
2023-03-05T23:23:35.468Z,12.65
2023-03-05T23:26:03.837Z,12.66
2023-03-05T23:28:32.500Z,12.70
2023-03-05T23:31:00.790Z,12.54
2023-03-05T23:33:29.426Z,12.35
2023-03-05T23:35:59.944Z,12.32
2023-03-05T23:38:31.028Z,12.37
2023-03-05T23:41:01.837Z,12.39
2023-03-05T23:43:31.217Z,12.39
2023-03-05T23:46:01.240Z,12.40
2023-03-05T23:48:30.626Z,12.39
2023-03-05T23:50:58.983Z,12.38
2023-03-05T23:53:30.040Z,12.35
2023-03-05T23:55:58.617Z,12.29
2023-03-05T23:58:26.911Z,12.31
